sensor_id;sensor_type;location;lat;lon;timestamp;pressure;altitude;pressure_sealevel;temperature;humidity
55301;BME280;58302;51.446;-2.000;2022-10-30T00:01:19;100464.59;;;12.70;100.00
55301;BME280;58302;51.446;-2.000;2022-10-30T00:03:45;100469.25;;;12.64;100.00
55301;BME280;58302;51.446;-2.000;2022-10-30T00:06:11;100481.78;;;12.60;100.00
55301;BME280;58302;51.446;-2.000;2022-10-30T00:08:37;100478.25;;;12.59;100.00
55301;BME280;58302;51.446;-2.000;2022-10-30T00:11:10;100479.59;;;12.62;100.00
55301;BME280;58302;51.446;-2.000;2022-10-30T00:13:37;100469.81;;;12.56;100.00
55301;BME280;58302;51.446;-2.000;2022-10-30T00:16:05;100476.88;;;12.52;100.00
55301;BME280;58302;51.446;-2.000;2022-10-30T00:18:34;100474.97;;;12.52;100.00
55301;BME280;58302;51.446;-2.000;2022-10-30T00:21:10;100476.34;;;12.55;100.00
55301;BME280;58302;51.446;-2.000;2022-10-30T00:23:37;100476.88;;;12.57;100.00
55301;BME280;58302;51.446;-2.000;2022-10-30T00:26:04;100477.44;;;12.54;100.00
55301;BME280;58302;51.446;-2.000;2022-10-30T00:28:30;100473.66;;;12.45;100.00
55301;BME280;58302;51.446;-2.000;2022-10-30T00:31:01;100476.66;;;12.38;100.00
55301;BME280;58302;51.446;-2.000;2022-10-30T00:33:27;100469.84;;;12.35;100.00
55301;BME280;58302;51.446;-2.000;2022-10-30T00:35:53;100464.47;;;12.20;100.00
55301;BME280;58302;51.446;-2.000;2022-10-30T00:38:20;100466.09;;;12.11;100.00
55301;BME280;58302;51.446;-2.000;2022-10-30T00:40:46;100456.03;;;12.06;100.00
55301;BME280;58302;51.446;-2.000;2022-10-30T00:43:33;100468.00;;;12.05;100.00
55301;BME280;58302;51.446;-2.000;2022-10-30T00:46:05;100464.19;;;12.01;100.00
55301;BME280;58302;51.446;-2.000;2022-10-30T00:48:33;100457.13;;;12.05;100.00
55301;BME280;58302;51.446;-2.000;2022-10-30T00:51:00;100460.13;;;11.94;100.00
55301;BME280;58302;51.446;-2.000;2022-10-30T00:53:28;100465.28;;;11.80;100.00
55301;BME280;58302;51.446;-2.000;2022-10-30T00:55:56;100461.47;;;11.66;100.00
55301;BME280;58302;51.446;-2.000;2022-10-30T00:58:28;100464.44;;;11.69;100.00
55301;BME280;58302;51.446;-2.000;2022-10-30T01:00:57;100466.94;;;11.71;100.00
55301;BME280;58302;51.446;-2.000;2022-10-30T01:03:25;100469.38;;;11.77;100.00
55301;BME280;58302;51.446;-2.000;2022-10-30T01:05:56;100470.72;;;11.70;100.00
55301;BME280;58302;51.446;-2.000;2022-10-30T01:08:23;100462.81;;;11.63;100.00
55301;BME280;58302;51.446;-2.000;2022-10-30T01:10:49;100465.28;;;11.54;100.00
55301;BME280;58302;51.446;-2.000;2022-10-30T01:13:17;100463.09;;;11.46;100.00
55301;BME280;58302;51.446;-2.000;2022-10-30T01:24:34;100472.63;;;11.39;100.00
55301;BME280;58302;51.446;-2.000;2022-10-30T01:27:36;100470.41;;;11.35;100.00
55301;BME280;58302;51.446;-2.000;2022-10-30T01:36:32;100457.38;;;11.38;100.00
55301;BME280;58302;51.446;-2.000;2022-10-30T01:39:14;100459.53;;;11.41;100.00
55301;BME280;58302;51.446;-2.000;2022-10-30T01:41:40;100453.00;;;11.37;100.00
55301;BME280;58302;51.446;-2.000;2022-10-30T01:44:24;100441.88;;;11.43;100.00
55301;BME280;58302;51.446;-2.000;2022-10-30T01:50:34;100441.28;;;11.16;100.00
55301;BME280;58302;51.446;-2.000;2022-10-30T01:53:12;100459.50;;;11.20;100.00
55301;BME280;58302;51.446;-2.000;2022-10-30T01:55:53;100449.47;;;11.16;100.00
55301;BME280;58302;51.446;-2.000;2022-10-30T01:58:33;100448.38;;;11.17;100.00
55301;BME280;58302;51.446;-2.000;2022-10-30T02:01:01;100442.09;;;11.16;100.00
55301;BME280;58302;51.446;-2.000;2022-10-30T02:03:29;100450.50;;;11.15;100.00
55301;BME280;58302;51.446;-2.000;2022-10-30T02:05:55;100453.22;;;11.09;100.00
55301;BME280;58302;51.446;-2.000;2022-10-30T02:08:21;100454.28;;;10.98;100.00
55301;BME280;58302;51.446;-2.000;2022-10-30T02:10:49;100449.38;;;10.90;100.00
55301;BME280;58302;51.446;-2.000;2022-10-30T02:13:17;100450.22;;;10.96;100.00
55301;BME280;58302;51.446;-2.000;2022-10-30T02:15:44;100449.94;;;10.97;100.00
55301;BME280;58302;51.446;-2.000;2022-10-30T02:18:11;100459.44;;;10.90;100.00
55301;BME280;58302;51.446;-2.000;2022-10-30T02:20:37;100458.34;;;10.86;100.00
55301;BME280;58302;51.446;-2.000;2022-10-30T02:23:04;100449.69;;;10.94;100.00
55301;BME280;58302;51.446;-2.000;2022-10-30T02:25:31;100448.59;;;11.00;100.00
55301;BME280;58302;51.446;-2.000;2022-10-30T02:27:57;100447.22;;;11.02;100.00
55301;BME280;58302;51.446;-2.000;2022-10-30T02:32:59;100449.69;;;10.94;100.00
55301;BME280;58302;51.446;-2.000;2022-10-30T02:35:25;100441.75;;;10.92;100.00
55301;BME280;58302;51.446;-2.000;2022-10-30T02:37:50;100444.78;;;10.96;100.00
55301;BME280;58302;51.446;-2.000;2022-10-30T02:40:16;100433.34;;;10.89;100.00
55301;BME280;58302;51.446;-2.000;2022-10-30T02:42:42;100434.66;;;10.81;100.00
55301;BME280;58302;51.446;-2.000;2022-10-30T02:45:10;100429.47;;;10.74;100.00
55301;BME280;58302;51.446;-2.000;2022-10-30T02:47:36;100428.31;;;10.60;100.00
55301;BME280;58302;51.446;-2.000;2022-10-30T02:50:02;100431.28;;;10.53;100.00
55301;BME280;58302;51.446;-2.000;2022-10-30T02:52:28;100448.19;;;10.61;100.00
55301;BME280;58302;51.446;-2.000;2022-10-30T02:54:54;100454.47;;;10.66;100.00
55301;BME280;58302;51.446;-2.000;2022-10-30T02:57:20;100452.84;;;10.70;100.00
55301;BME280;58302;51.446;-2.000;2022-10-30T02:59:46;100463.81;;;10.96;100.00
55301;BME280;58302;51.446;-2.000;2022-10-30T03:02:12;100445.88;;;11.05;100.00
55301;BME280;58302;51.446;-2.000;2022-10-30T03:04:37;100436.91;;;11.09;100.00
55301;BME280;58302;51.446;-2.000;2022-10-30T03:07:03;100434.19;;;11.15;100.00
55301;BME280;58302;51.446;-2.000;2022-10-30T03:09:29;100418.97;;;11.24;100.00
55301;BME280;58302;51.446;-2.000;2022-10-30T03:11:55;100422.81;;;11.28;100.00
55301;BME280;58302;51.446;-2.000;2022-10-30T03:14:21;100422.25;;;11.31;100.00
55301;BME280;58302;51.446;-2.000;2022-10-30T03:16:47;100422.00;;;11.38;100.00
55301;BME280;58302;51.446;-2.000;2022-10-30T03:19:13;100428.00;;;11.45;100.00
55301;BME280;58302;51.446;-2.000;2022-10-30T03:21:39;100431.00;;;11.48;100.00
55301;BME280;58302;51.446;-2.000;2022-10-30T03:24:05;100425.81;;;11.52;100.00
55301;BME280;58302;51.446;-2.000;2022-10-30T03:26:31;100442.41;;;11.55;100.00
55301;BME280;58302;51.446;-2.000;2022-10-30T03:28:57;100451.69;;;11.59;100.00
55301;BME280;58302;51.446;-2.000;2022-10-30T03:31:23;100459.56;;;11.71;100.00
55301;BME280;58302;51.446;-2.000;2022-10-30T03:33:49;100452.22;;;11.77;100.00
55301;BME280;58302;51.446;-2.000;2022-10-30T03:36:15;100440.25;;;11.83;100.00
55301;BME280;58302;51.446;-2.000;2022-10-30T03:38:42;100430.72;;;11.85;100.00
55301;BME280;58302;51.446;-2.000;2022-10-30T03:41:08;100432.09;;;11.88;100.00
55301;BME280;58302;51.446;-2.000;2022-10-30T03:43:34;100436.16;;;11.91;100.00
55301;BME280;58302;51.446;-2.000;2022-10-30T03:46:00;100420.38;;;11.88;100.00
55301;BME280;58302;51.446;-2.000;2022-10-30T03:48:27;100408.41;;;11.83;100.00
55301;BME280;58302;51.446;-2.000;2022-10-30T03:50:58;100389.84;;;11.80;100.00
55301;BME280;58302;51.446;-2.000;2022-10-30T03:53:24;100375.72;;;11.73;100.00
55301;BME280;58302;51.446;-2.000;2022-10-30T03:55:52;100393.94;;;11.73;100.00
55301;BME280;58302;51.446;-2.000;2022-10-30T03:58:21;100392.56;;;11.75;100.00
55301;BME280;58302;51.446;-2.000;2022-10-30T04:00:47;100384.44;;;11.70;100.00
55301;BME280;58302;51.446;-2.000;2022-10-30T04:03:13;100367.03;;;11.56;100.00
55301;BME280;58302;51.446;-2.000;2022-10-30T04:05:39;100349.88;;;11.45;100.00
55301;BME280;58302;51.446;-2.000;2022-10-30T04:08:08;100348.53;;;11.32;100.00
55301;BME280;58302;51.446;-2.000;2022-10-30T04:10:36;100347.97;;;11.20;100.00
55301;BME280;58302;51.446;-2.000;2022-10-30T04:13:06;100364.84;;;11.12;100.00
55301;BME280;58302;51.446;-2.000;2022-10-30T04:15:32;100369.19;;;11.08;100.00
55301;BME280;58302;51.446;-2.000;2022-10-30T04:17:59;100363.22;;;11.01;100.00
55301;BME280;58302;51.446;-2.000;2022-10-30T04:20:25;100363.47;;;10.94;100.00
55301;BME280;58302;51.446;-2.000;2022-10-30T04:23:03;100358.56;;;10.96;100.00
55301;BME280;58302;51.446;-2.000;2022-10-30T04:25:30;100380.06;;;11.03;100.00
55301;BME280;58302;51.446;-2.000;2022-10-30T04:27:56;100398.59;;;11.21;100.00
55301;BME280;58302;51.446;-2.000;2022-10-30T04:30:22;100411.38;;;11.51;100.00
55301;BME280;58302;51.446;-2.000;2022-10-30T04:32:58;100405.94;;;11.67;100.00
55301;BME280;58302;51.446;-2.000;2022-10-30T04:35:27;100404.03;;;11.77;100.00
55301;BME280;58302;51.446;-2.000;2022-10-30T04:37:55;100404.84;;;11.93;100.00
55301;BME280;58302;51.446;-2.000;2022-10-30T04:40:23;100398.53;;;12.08;100.00
55301;BME280;58302;51.446;-2.000;2022-10-30T04:42:49;100398.81;;;12.11;100.00
55301;BME280;58302;51.446;-2.000;2022-10-30T04:45:17;100405.34;;;12.21;100.00
55301;BME280;58302;51.446;-2.000;2022-10-30T04:47:43;100399.59;;;12.22;100.00
55301;BME280;58302;51.446;-2.000;2022-10-30T04:50:10;100405.56;;;12.24;100.00
55301;BME280;58302;51.446;-2.000;2022-10-30T04:52:36;100396.28;;;12.30;100.00
55301;BME280;58302;51.446;-2.000;2022-10-30T04:55:03;100372.56;;;12.36;100.00
55301;BME280;58302;51.446;-2.000;2022-10-30T04:57:29;100373.63;;;12.45;100.00
55301;BME280;58302;51.446;-2.000;2022-10-30T04:59:59;100383.41;;;12.51;100.00
55301;BME280;58302;51.446;-2.000;2022-10-30T05:02:25;100377.94;;;12.51;100.00
55301;BME280;58302;51.446;-2.000;2022-10-30T05:04:51;100379.84;;;12.56;100.00
55301;BME280;58302;51.446;-2.000;2022-10-30T05:07:17;100385.28;;;12.56;100.00
55301;BME280;58302;51.446;-2.000;2022-10-30T05:09:43;100389.94;;;12.55;100.00
55301;BME280;58302;51.446;-2.000;2022-10-30T05:12:09;100385.56;;;12.54;100.00
55301;BME280;58302;51.446;-2.000;2022-10-30T05:14:35;100390.75;;;12.56;100.00
55301;BME280;58302;51.446;-2.000;2022-10-30T05:17:02;100393.97;;;12.63;100.00
55301;BME280;58302;51.446;-2.000;2022-10-30T05:19:28;100392.31;;;12.67;100.00
55301;BME280;58302;51.446;-2.000;2022-10-30T05:21:54;100387.41;;;12.69;100.00
55301;BME280;58302;51.446;-2.000;2022-10-30T05:24:20;100387.94;;;12.71;100.00
55301;BME280;58302;51.446;-2.000;2022-10-30T05:26:46;100386.31;;;12.70;100.00
55301;BME280;58302;51.446;-2.000;2022-10-30T05:29:12;100374.34;;;12.66;100.00
55301;BME280;58302;51.446;-2.000;2022-10-30T05:31:39;100385.53;;;12.64;100.00
55301;BME280;58302;51.446;-2.000;2022-10-30T05:34:05;100390.72;;;12.61;100.00
55301;BME280;58302;51.446;-2.000;2022-10-30T05:36:31;100401.06;;;12.64;100.00
55301;BME280;58302;51.446;-2.000;2022-10-30T05:38:56;100400.81;;;12.60;100.00
55301;BME280;58302;51.446;-2.000;2022-10-30T05:41:22;100400.22;;;12.63;100.00
55301;BME280;58302;51.446;-2.000;2022-10-30T05:43:48;100404.31;;;12.66;100.00
55301;BME280;58302;51.446;-2.000;2022-10-30T05:46:14;100386.88;;;12.67;100.00
55301;BME280;58302;51.446;-2.000;2022-10-30T05:48:40;100395.03;;;12.67;100.00
55301;BME280;58302;51.446;-2.000;2022-10-30T05:51:06;100391.25;;;12.63;100.00
55301;BME280;58302;51.446;-2.000;2022-10-30T05:53:33;100397.28;;;12.60;100.00
55301;BME280;58302;51.446;-2.000;2022-10-30T05:55:59;100400.00;;;12.60;100.00
55301;BME280;58302;51.446;-2.000;2022-10-30T05:58:28;100389.09;;;12.60;100.00
55301;BME280;58302;51.446;-2.000;2022-10-30T06:00:54;100385.81;;;12.58;100.00
55301;BME280;58302;51.446;-2.000;2022-10-30T06:03:20;100380.09;;;12.59;100.00
55301;BME280;58302;51.446;-2.000;2022-10-30T06:05:47;100379.81;;;12.61;100.00
55301;BME280;58302;51.446;-2.000;2022-10-30T06:08:13;100372.16;;;12.63;100.00
55301;BME280;58302;51.446;-2.000;2022-10-30T06:10:42;100373.22;;;12.67;100.00
55301;BME280;58302;51.446;-2.000;2022-10-30T06:13:09;100366.16;;;12.66;100.00
55301;BME280;58302;51.446;-2.000;2022-10-30T06:15:35;100354.44;;;12.65;100.00
55301;BME280;58302;51.446;-2.000;2022-10-30T06:18:01;100349.50;;;12.68;100.00
55301;BME280;58302;51.446;-2.000;2022-10-30T06:20:28;100363.41;;;12.71;100.00
55301;BME280;58302;51.446;-2.000;2022-10-30T06:22:58;100362.88;;;12.69;100.00
55301;BME280;58302;51.446;-2.000;2022-10-30T06:25:25;100355.78;;;12.68;100.00
55301;BME280;58302;51.446;-2.000;2022-10-30T06:27:51;100366.97;;;12.66;100.00
55301;BME280;58302;51.446;-2.000;2022-10-30T06:30:17;100375.94;;;12.72;100.00
55301;BME280;58302;51.446;-2.000;2022-10-30T06:32:43;100373.50;;;12.71;100.00
55301;BME280;58302;51.446;-2.000;2022-10-30T06:35:09;100366.41;;;12.70;100.00
55301;BME280;58302;51.446;-2.000;2022-10-30T06:37:35;100364.50;;;12.70;100.00
55301;BME280;58302;51.446;-2.000;2022-10-30T06:40:06;100366.69;;;12.68;100.00
55301;BME280;58302;51.446;-2.000;2022-10-30T06:42:32;100369.66;;;12.72;100.00
55301;BME280;58302;51.446;-2.000;2022-10-30T06:44:58;100381.66;;;12.76;100.00
55301;BME280;58302;51.446;-2.000;2022-10-30T06:47:24;100366.66;;;12.73;100.00
55301;BME280;58302;51.446;-2.000;2022-10-30T06:49:50;100369.34;;;12.78;100.00
55301;BME280;58302;51.446;-2.000;2022-10-30T06:52:16;100373.44;;;12.81;100.00
55301;BME280;58302;51.446;-2.000;2022-10-30T06:54:45;100362.53;;;12.81;100.00
55301;BME280;58302;51.446;-2.000;2022-10-30T06:57:13;100365.81;;;12.78;100.00
55301;BME280;58302;51.446;-2.000;2022-10-30T06:59:38;100369.94;;;12.75;100.00
55301;BME280;58302;51.446;-2.000;2022-10-30T07:02:04;100361.72;;;12.80;100.00
55301;BME280;58302;51.446;-2.000;2022-10-30T07:04:30;100367.13;;;12.85;100.00
55301;BME280;58302;51.446;-2.000;2022-10-30T07:06:56;100358.94;;;12.85;100.00
55301;BME280;58302;51.446;-2.000;2022-10-30T07:09:22;100358.94;;;12.85;100.00
55301;BME280;58302;51.446;-2.000;2022-10-30T07:11:48;100349.69;;;12.86;100.00
55301;BME280;58302;51.446;-2.000;2022-10-30T07:14:14;100345.81;;;12.92;100.00
55301;BME280;58302;51.446;-2.000;2022-10-30T07:16:40;100355.34;;;12.95;100.00
55301;BME280;58302;51.446;-2.000;2022-10-30T07:19:06;100355.63;;;12.93;100.00
55301;BME280;58302;51.446;-2.000;2022-10-30T07:21:32;100364.94;;;12.87;100.00
55301;BME280;58302;51.446;-2.000;2022-10-30T07:23:58;100373.69;;;12.84;100.00
55301;BME280;58302;51.446;-2.000;2022-10-30T07:26:24;100366.34;;;12.80;100.00
55301;BME280;58302;51.446;-2.000;2022-10-30T07:28:50;100366.34;;;12.80;100.00
55301;BME280;58302;51.446;-2.000;2022-10-30T07:31:16;100379.97;;;12.80;100.00
55301;BME280;58302;51.446;-2.000;2022-10-30T07:33:42;100377.50;;;12.83;100.00
55301;BME280;58302;51.446;-2.000;2022-10-30T07:36:08;100376.66;;;12.88;100.00
55301;BME280;58302;51.446;-2.000;2022-10-30T07:38:34;100359.97;;;12.95;100.00
55301;BME280;58302;51.446;-2.000;2022-10-30T07:41:00;100362.13;;;13.03;100.00
55301;BME280;58302;51.446;-2.000;2022-10-30T07:43:26;100344.66;;;13.04;100.00
55301;BME280;58302;51.446;-2.000;2022-10-30T07:45:51;100335.88;;;13.07;100.00
55301;BME280;58302;51.446;-2.000;2022-10-30T07:48:17;100336.66;;;13.12;100.00
55301;BME280;58302;51.446;-2.000;2022-10-30T07:50:43;100343.47;;;13.15;100.00
55301;BME280;58302;51.446;-2.000;2022-10-30T07:53:09;100333.66;;;13.14;100.00
55301;BME280;58302;51.446;-2.000;2022-10-30T07:55:35;100328.47;;;13.12;100.00
55301;BME280;58302;51.446;-2.000;2022-10-30T07:58:01;100329.28;;;13.13;100.00
55301;BME280;58302;51.446;-2.000;2022-10-30T08:00:27;100344.56;;;13.14;100.00
55301;BME280;58302;51.446;-2.000;2022-10-30T08:02:55;100342.63;;;13.19;100.00
55301;BME280;58302;51.446;-2.000;2022-10-30T08:05:21;100337.91;;;13.30;100.00
55301;BME280;58302;51.446;-2.000;2022-10-30T08:07:47;100345.47;;;13.38;100.00
55301;BME280;58302;51.446;-2.000;2022-10-30T08:10:13;100345.69;;;13.47;100.00
55301;BME280;58302;51.446;-2.000;2022-10-30T08:12:39;100347.56;;;13.52;100.00
55301;BME280;58302;51.446;-2.000;2022-10-30T08:15:09;100349.13;;;13.58;100.00
55301;BME280;58302;51.446;-2.000;2022-10-30T08:17:45;100334.91;;;13.61;100.00
55301;BME280;58302;51.446;-2.000;2022-10-30T08:20:13;100338.16;;;13.63;100.00
55301;BME280;58302;51.446;-2.000;2022-10-30T08:23:01;100351.81;;;13.63;100.00
55301;BME280;58302;51.446;-2.000;2022-10-30T08:25:28;100359.19;;;13.62;100.00
55301;BME280;58302;51.446;-2.000;2022-10-30T08:28:05;100358.38;;;13.62;100.00
55301;BME280;58302;51.446;-2.000;2022-10-30T08:30:33;100369.28;;;13.62;100.00
55301;BME280;58302;51.446;-2.000;2022-10-30T08:33:02;100368.72;;;13.65;100.00
55301;BME280;58302;51.446;-2.000;2022-10-30T08:35:28;100367.28;;;13.73;100.00
55301;BME280;58302;51.446;-2.000;2022-10-30T08:37:59;100377.81;;;13.84;100.00
55301;BME280;58302;51.446;-2.000;2022-10-30T08:40:27;100382.13;;;13.90;100.00
55301;BME280;58302;51.446;-2.000;2022-10-30T08:42:55;100377.72;;;13.94;100.00
55301;BME280;58302;51.446;-2.000;2022-10-30T08:45:22;100383.66;;;14.02;100.00
55301;BME280;58302;51.446;-2.000;2022-10-30T08:47:55;100387.41;;;14.06;100.00
55301;BME280;58302;51.446;-2.000;2022-10-30T08:50:22;100386.34;;;14.07;100.00
55301;BME280;58302;51.446;-2.000;2022-10-30T08:52:48;100376.97;;;14.13;100.00
55301;BME280;58302;51.446;-2.000;2022-10-30T08:55:17;100379.13;;;14.16;100.00
55301;BME280;58302;51.446;-2.000;2022-10-30T08:57:43;100383.72;;;14.20;100.00
55301;BME280;58302;51.446;-2.000;2022-10-30T09:00:10;100377.94;;;14.22;100.00
55301;BME280;58302;51.446;-2.000;2022-10-30T09:02:38;100371.47;;;14.18;100.00
55301;BME280;58302;51.446;-2.000;2022-10-30T09:05:05;100378.50;;;14.24;100.00
55301;BME280;58302;51.446;-2.000;2022-10-30T09:07:32;100381.44;;;14.28;100.00
55301;BME280;58302;51.446;-2.000;2022-10-30T09:09:58;100381.72;;;14.26;100.00
55301;BME280;58302;51.446;-2.000;2022-10-30T09:12:24;100385.47;;;14.35;100.00
55301;BME280;58302;51.446;-2.000;2022-10-30T09:14:50;100384.66;;;14.35;100.00
55301;BME280;58302;51.446;-2.000;2022-10-30T09:17:16;100383.41;;;14.46;100.00
55301;BME280;58302;51.446;-2.000;2022-10-30T09:19:42;100374.88;;;14.53;100.00
55301;BME280;58302;51.446;-2.000;2022-10-30T09:22:07;100377.69;;;14.66;100.00
55301;BME280;58302;51.446;-2.000;2022-10-30T09:24:33;100379.78;;;14.93;100.00
55301;BME280;58302;51.446;-2.000;2022-10-30T09:26:59;100371.22;;;15.00;100.00
55301;BME280;58302;51.446;-2.000;2022-10-30T09:29:25;100370.69;;;14.98;100.00
55301;BME280;58302;51.446;-2.000;2022-10-30T09:31:51;100374.69;;;15.06;100.00
55301;BME280;58302;51.446;-2.000;2022-10-30T09:34:17;100369.13;;;15.11;100.00
55301;BME280;58302;51.446;-2.000;2022-10-30T09:36:43;100370.31;;;15.05;100.00
55301;BME280;58302;51.446;-2.000;2022-10-30T09:39:11;100360.72;;;15.07;100.00
55301;BME280;58302;51.446;-2.000;2022-10-30T09:44:40;100365.44;;;15.01;100.00
55301;BME280;58302;51.446;-2.000;2022-10-30T09:47:34;100350.22;;;14.95;100.00
55301;BME280;58302;51.446;-2.000;2022-10-30T10:01:21;100351.22;;;14.99;100.00
55301;BME280;58302;51.446;-2.000;2022-10-30T10:04:10;100343.56;;;15.01;100.00
55301;BME280;58302;51.446;-2.000;2022-10-30T10:06:43;100348.88;;;15.12;100.00
55301;BME280;58302;51.446;-2.000;2022-10-30T10:09:16;100347.22;;;15.11;100.00
55301;BME280;58302;51.446;-2.000;2022-10-30T10:11:52;100340.78;;;15.20;100.00
55301;BME280;58302;51.446;-2.000;2022-10-30T10:14:26;100345.34;;;15.25;100.00
55301;BME280;58302;51.446;-2.000;2022-10-30T10:16:54;100342.13;;;15.23;100.00
55301;BME280;58302;51.446;-2.000;2022-10-30T10:19:47;100347.44;;;15.33;100.00
55301;BME280;58302;51.446;-2.000;2022-10-30T10:22:21;100346.97;;;15.26;100.00
55301;BME280;58302;51.446;-2.000;2022-10-30T10:24:49;100335.69;;;15.14;100.00
55301;BME280;58302;51.446;-2.000;2022-10-30T10:30:09;100342.28;;;15.13;100.00
55301;BME280;58302;51.446;-2.000;2022-10-30T10:35:52;100342.06;;;15.09;100.00
55301;BME280;58302;51.446;-2.000;2022-10-30T10:46:33;100344.03;;;15.22;100.00
55301;BME280;58302;51.446;-2.000;2022-10-30T10:49:12;100347.72;;;15.32;100.00
55301;BME280;58302;51.446;-2.000;2022-10-30T10:51:47;100348.19;;;15.52;100.00
55301;BME280;58302;51.446;-2.000;2022-10-30T10:54:18;100349.78;;;15.72;100.00
55301;BME280;58302;51.446;-2.000;2022-10-30T10:56:48;100352.84;;;15.98;100.00
55301;BME280;58302;51.446;-2.000;2022-10-30T10:59:19;100355.91;;;16.11;100.00
55301;BME280;58302;51.446;-2.000;2022-10-30T11:04:45;100351.00;;;16.35;100.00
55301;BME280;58302;51.446;-2.000;2022-10-30T11:07:21;100350.09;;;16.40;100.00
55301;BME280;58302;51.446;-2.000;2022-10-30T11:09:50;100343.69;;;16.72;100.00
55301;BME280;58302;51.446;-2.000;2022-10-30T11:12:28;100342.47;;;17.00;100.00
55301;BME280;58302;51.446;-2.000;2022-10-30T11:15:02;100338.44;;;17.20;100.00
55301;BME280;58302;51.446;-2.000;2022-10-30T11:17:38;100346.13;;;16.96;100.00
55301;BME280;58302;51.446;-2.000;2022-10-30T11:20:28;100350.22;;;16.98;100.00
55301;BME280;58302;51.446;-2.000;2022-10-30T11:22:55;100357.22;;;16.91;100.00
55301;BME280;58302;51.446;-2.000;2022-10-30T11:25:26;100361.22;;;16.84;100.00
55301;BME280;58302;51.446;-2.000;2022-10-30T11:28:03;100356.75;;;16.75;100.00
55301;BME280;58302;51.446;-2.000;2022-10-30T11:30:30;100349.56;;;16.65;100.00
55301;BME280;58302;51.446;-2.000;2022-10-30T11:32:57;100354.50;;;16.27;100.00
55301;BME280;58302;51.446;-2.000;2022-10-30T11:35:25;100362.59;;;15.91;100.00
55301;BME280;58302;51.446;-2.000;2022-10-30T11:38:11;100364.13;;;15.50;100.00
55301;BME280;58302;51.446;-2.000;2022-10-30T11:40:38;100365.97;;;15.36;100.00
55301;BME280;58302;51.446;-2.000;2022-10-30T11:43:12;100367.75;;;15.78;100.00
55301;BME280;58302;51.446;-2.000;2022-10-30T11:45:42;100359.44;;;16.25;100.00
55301;BME280;58302;51.446;-2.000;2022-10-30T11:48:28;100364.44;;;15.95;100.00
55301;BME280;58302;51.446;-2.000;2022-10-30T11:51:00;100369.59;;;16.24;100.00
55301;BME280;58302;51.446;-2.000;2022-10-30T11:56:00;100369.59;;;16.66;100.00
55301;BME280;58302;51.446;-2.000;2022-10-30T11:58:37;100362.28;;;16.47;100.00
55301;BME280;58302;51.446;-2.000;2022-10-30T12:01:22;100380.09;;;16.22;100.00
55301;BME280;58302;51.446;-2.000;2022-10-30T12:03:49;100365.53;;;15.94;100.00
55301;BME280;58302;51.446;-2.000;2022-10-30T12:06:24;100375.97;;;15.92;100.00
55301;BME280;58302;51.446;-2.000;2022-10-30T12:09:09;100378.66;;;15.65;100.00
55301;BME280;58302;51.446;-2.000;2022-10-30T12:11:38;100381.66;;;15.49;100.00
55301;BME280;58302;51.446;-2.000;2022-10-30T12:14:20;100381.22;;;15.42;100.00
55301;BME280;58302;51.446;-2.000;2022-10-30T12:16:50;100378.78;;;15.41;100.00
55301;BME280;58302;51.446;-2.000;2022-10-30T12:19:19;100390.59;;;15.22;100.00
55301;BME280;58302;51.446;-2.000;2022-10-30T12:21:48;100394.13;;;15.23;100.00
55301;BME280;58302;51.446;-2.000;2022-10-30T12:26:53;100398.81;;;15.22;100.00
55301;BME280;58302;51.446;-2.000;2022-10-30T12:29:25;100395.31;;;15.17;100.00
55301;BME280;58302;51.446;-2.000;2022-10-30T12:32:07;100383.84;;;15.15;100.00
55301;BME280;58302;51.446;-2.000;2022-10-30T12:34:49;100387.03;;;15.22;100.00
55301;BME280;58302;51.446;-2.000;2022-10-30T12:37:30;100390.88;;;15.53;100.00
55301;BME280;58302;51.446;-2.000;2022-10-30T12:40:07;100400.31;;;15.80;100.00
55301;BME280;58302;51.446;-2.000;2022-10-30T12:42:46;100405.16;;;16.16;100.00
55301;BME280;58302;51.446;-2.000;2022-10-30T12:45:20;100403.31;;;16.66;100.00
55301;BME280;58302;51.446;-2.000;2022-10-30T12:48:00;100394.28;;;16.52;100.00
55301;BME280;58302;51.446;-2.000;2022-10-30T12:50:46;100389.91;;;16.10;100.00
55301;BME280;58302;51.446;-2.000;2022-10-30T12:53:33;100393.91;;;15.71;100.00
55301;BME280;58302;51.446;-2.000;2022-10-30T12:56:18;100391.66;;;15.40;100.00
55301;BME280;58302;51.446;-2.000;2022-10-30T13:04:35;100388.22;;;16.27;100.00
55301;BME280;58302;51.446;-2.000;2022-10-30T13:09:48;100368.84;;;16.88;100.00
55301;BME280;58302;51.446;-2.000;2022-10-30T13:12:31;100391.28;;;17.03;100.00
55301;BME280;58302;51.446;-2.000;2022-10-30T13:15:03;100389.13;;;17.36;100.00
55301;BME280;58302;51.446;-2.000;2022-10-30T13:17:31;100386.78;;;17.52;100.00
55301;BME280;58302;51.446;-2.000;2022-10-30T13:19:58;100395.66;;;17.49;100.00
55301;BME280;58302;51.446;-2.000;2022-10-30T13:22:57;100390.28;;;17.67;100.00
55301;BME280;58302;51.446;-2.000;2022-10-30T13:25:33;100379.59;;;17.65;100.00
55301;BME280;58302;51.446;-2.000;2022-10-30T13:28:26;100373.44;;;17.59;100.00
55301;BME280;58302;51.446;-2.000;2022-10-30T13:33:32;100375.13;;;17.69;100.00
55301;BME280;58302;51.446;-2.000;2022-10-30T13:36:15;100377.72;;;17.97;100.00
55301;BME280;58302;51.446;-2.000;2022-10-30T13:44:12;100380.88;;;17.90;100.00
55301;BME280;58302;51.446;-2.000;2022-10-30T13:47:03;100384.41;;;17.82;100.00
55301;BME280;58302;51.446;-2.000;2022-10-30T13:52:20;100382.91;;;17.08;100.00
55301;BME280;58302;51.446;-2.000;2022-10-30T13:55:13;100391.78;;;16.92;100.00
55301;BME280;58302;51.446;-2.000;2022-10-30T13:58:00;100375.84;;;16.94;100.00
55301;BME280;58302;51.446;-2.000;2022-10-30T14:11:15;100367.06;;;16.14;100.00